Time;durP1;ratioP1;P1;durP2;ratioP2;P2;SDS_P1;SDS_P2;PMS_P1;PMS_P2;Temp;Humidity;BMP_temperature;BMP_pressure;BME280_temperature;BME280_humidity;BME280_pressure;Samples;Min_cycle;Max_cycle;Signal;HPM_P1;HPM_P2
2022/02/11 00:02:17;;;;;;;7.60;6.40;;;6.10;99.90;;;;;;5092581;28;20480;-78
2022/02/11 00:05:37;;;;;;;8.50;4.83;;;6.00;99.90;;;;;;5092681;28;20395;-78
2022/02/11 00:08:10;;;;;;;6.90;4.90;;;6.10;99.90;;;;;;5088395;28;20389;-80
2022/02/11 00:10:55;;;;;;;7.80;5.57;;;6.10;99.90;;;;;;5086531;28;20408;-81
2022/02/11 00:13:39;;;;;;;11.17;5.40;;;6.10;99.90;;;;;;5086080;28;20540;-80
2022/02/11 00:16:24;;;;;;;4.50;4.10;;;6.10;99.90;;;;;;5086132;28;20443;-80
2022/02/11 00:19:08;;;;;;;6.90;4.90;;;6.10;99.90;;;;;;5086786;28;20411;-80
2022/02/11 00:21:53;;;;;;;6.13;5.53;;;5.90;99.90;;;;;;5086390;28;20437;-81
2022/02/11 00:24:38;;;;;;;6.80;5.50;;;5.90;99.90;;;;;;5086208;28;20407;-80
2022/02/11 00:33:29;;;;;;;10.07;4.70;;;6.00;99.90;;;;;;5085491;28;20889;-80
2022/02/11 00:36:15;;;;;;;7.47;5.23;;;6.00;99.90;;;;;;5084832;28;20413;-80
2022/02/11 01:03:08;;;;;;;7.17;5.37;;;5.90;99.90;;;;;;5084638;28;20554;-81
2022/02/11 01:05:52;;;;;;;5.73;5.13;;;5.90;99.90;;;;;;5085729;28;20749;-80
2022/02/11 01:08:40;;;;;;;5.90;5.00;;;5.80;99.90;;;;;;5085384;28;20456;-81
2022/02/11 01:11:33;;;;;;;9.40;7.27;;;5.80;99.90;;;;;;5085441;28;20710;-81
2022/02/11 01:14:22;;;;;;;6.73;5.17;;;5.90;99.90;;;;;;5086137;28;20368;-81
2022/02/11 01:20:21;;;;;;;10.93;6.20;;;6.00;99.90;;;;;;5094312;28;20445;-78
2022/02/11 01:23:19;;;;;;;6.17;4.87;;;6.00;99.90;;;;;;5093769;28;20464;-79
2022/02/11 01:26:19;;;;;;;8.10;6.77;;;5.90;99.90;;;;;;5093983;28;20376;-78
2022/02/11 01:35:23;;;;;;;6.83;5.23;;;6.20;99.90;;;;;;5085287;28;20417;-81
2022/02/11 01:44:27;;;;;;;8.90;4.50;;;6.00;99.90;;;;;;5085355;28;20423;-81
2022/02/11 01:47:57;;;;;;;5.20;4.73;;;5.70;99.90;;;;;;5084555;28;20392;-81
2022/02/11 01:50:38;;;;;;;7.77;6.10;;;5.90;99.90;;;;;;5084896;28;20783;-81
2022/02/11 01:53:27;;;;;;;7.23;5.10;;;5.70;99.90;;;;;;5086025;28;20400;-80
2022/02/11 01:56:31;;;;;;;7.43;4.53;;;5.80;99.90;;;;;;5086778;28;20928;-81
2022/02/11 01:59:44;;;;;;;10.95;6.78;;;5.70;99.90;;;;;;5083896;28;20749;-81
2022/02/11 02:02:58;;;;;;;8.53;5.90;;;5.50;99.90;;;;;;5085076;28;20240;-81
2022/02/11 02:05:54;;;;;;;9.37;5.90;;;5.50;99.90;;;;;;5085115;28;20386;-81
2022/02/11 02:14:57;;;;;;;6.40;5.60;;;5.60;99.90;;;;;;5085698;28;20394;-79
2022/02/11 02:24:01;;;;;;;7.70;4.50;;;5.90;99.90;;;;;;5085953;28;20480;-80
2022/02/11 02:36:16;;;;;;;10.23;5.80;;;6.10;99.90;;;;;;5082095;28;20542;-80
2022/02/11 02:39:19;;;;;;;6.30;4.97;;;6.00;99.90;;;;;;5084907;28;20383;-80
2022/02/11 02:57:10;;;;;;;6.93;5.43;;;5.80;99.90;;;;;;5085144;28;20967;-81
2022/02/11 03:00:18;;;;;;;5.70;4.53;;;5.70;99.90;;;;;;5085312;28;20412;-81
2022/02/11 03:15:34;;;;;;;4.53;4.03;;;5.80;99.90;;;;;;5087701;28;20506;-81
2022/02/11 03:48:41;;;;;;;5.10;3.73;;;5.90;99.90;;;;;;5086719;28;20372;-81
2022/02/11 03:59:11;;;;;;;3.90;3.60;;;5.80;99.90;;;;;;5086620;28;20490;-80
2022/02/11 04:21:51;;;;;;;2.83;2.63;;;5.90;99.90;;;;;;5085467;28;20400;-80
2022/02/11 05:00:14;;;;;;;1.10;1.00;;;5.10;99.90;;;;;;5084795;28;20748;-80
2022/02/11 05:02:59;;;;;;;1.17;1.07;;;5.10;99.90;;;;;;5084274;28;20515;-80
2022/02/11 05:05:51;;;;;;;1.50;1.40;;;5.00;99.90;;;;;;5084462;28;20407;-80
2022/02/11 05:08:35;;;;;;;1.13;1.03;;;5.00;99.90;;;;;;5083525;28;20376;-80
2022/02/11 05:11:20;;;;;;;1.57;1.20;;;4.80;99.90;;;;;;5083473;28;20937;-79
2022/02/11 05:14:06;;;;;;;1.00;1.00;;;4.90;99.90;;;;;;5083519;28;20421;-79
2022/02/11 05:16:50;;;;;;;1.10;1.00;;;4.90;99.90;;;;;;5083757;28;20383;-80
2022/02/11 05:19:35;;;;;;;1.20;1.10;;;4.80;99.90;;;;;;5055838;28;20360;-80
2022/02/11 05:22:19;;;;;;;1.30;1.20;;;4.80;99.90;;;;;;5084770;28;21025;-80
2022/02/11 05:25:06;;;;;;;6.00;1.97;;;4.80;99.90;;;;;;5085227;28;20368;-80
2022/02/11 05:27:51;;;;;;;1.00;1.00;;;4.80;99.90;;;;;;5083756;28;20849;-80
2022/02/11 05:30:37;;;;;;;1.30;1.20;;;4.70;99.90;;;;;;5083803;28;20376;-80
2022/02/11 05:33:23;;;;;;;1.17;1.07;;;4.70;99.90;;;;;;5085042;28;20363;-80
2022/02/11 05:36:08;;;;;;;0.90;0.90;;;4.70;99.90;;;;;;5086264;28;20400;-79
2022/02/11 05:38:52;;;;;;;1.00;0.93;;;4.70;99.90;;;;;;5088007;28;20372;-80
2022/02/11 05:41:37;;;;;;;1.10;1.00;;;4.70;99.90;;;;;;5084869;28;20509;-81
2022/02/11 05:44:22;;;;;;;1.20;1.10;;;4.70;99.90;;;;;;5085585;28;20419;-80
2022/02/11 05:47:06;;;;;;;1.50;1.40;;;4.70;99.90;;;;;;5062761;28;20436;-80
2022/02/11 05:49:51;;;;;;;1.97;1.10;;;4.70;99.90;;;;;;5066832;28;20368;-77
2022/02/11 05:52:36;;;;;;;1.50;1.40;;;4.70;99.90;;;;;;5068606;28;20369;-78
2022/02/11 05:55:21;;;;;;;1.20;1.13;;;4.70;99.90;;;;;;5068693;28;20524;-77
2022/02/11 05:58:05;;;;;;;1.50;1.40;;;4.80;99.90;;;;;;5064098;28;20519;-80
2022/02/11 06:00:50;;;;;;;1.60;1.50;;;4.80;99.90;;;;;;5062025;28;20818;-80
2022/02/11 06:03:36;;;;;;;1.23;1.13;;;4.70;99.90;;;;;;5062731;28;20474;-78
2022/02/11 06:06:21;;;;;;;1.40;1.30;;;4.70;99.90;;;;;;5062135;28;20412;-80
2022/02/11 06:09:05;;;;;;;1.70;1.40;;;4.70;99.90;;;;;;5061860;28;20369;-80
2022/02/11 06:11:49;;;;;;;1.20;1.10;;;4.70;99.90;;;;;;5080702;28;20371;-79
2022/02/11 06:14:36;;;;;;;1.30;1.20;;;4.70;99.90;;;;;;5081293;28;20360;-79
2022/02/11 06:17:20;;;;;;;1.20;1.10;;;4.70;99.90;;;;;;5072014;28;20499;-80
2022/02/11 06:20:07;;;;;;;1.30;1.20;;;4.60;99.90;;;;;;5062433;28;20360;-79
2022/02/11 06:22:51;;;;;;;1.40;1.30;;;4.50;99.90;;;;;;5048102;28;20440;-81
2022/02/11 06:25:36;;;;;;;2.17;1.70;;;4.50;99.90;;;;;;5064720;28;20397;-81
2022/02/11 06:28:20;;;;;;;1.37;1.27;;;4.40;99.90;;;;;;5079394;28;20416;-81
2022/02/11 06:31:05;;;;;;;1.50;1.40;;;4.40;99.90;;;;;;5086952;28;20447;-81
2022/02/11 06:33:50;;;;;;;1.60;1.50;;;4.30;99.90;;;;;;5071908;28;20897;-81
2022/02/11 06:36:35;;;;;;;1.50;1.40;;;4.40;99.90;;;;;;5078983;28;20454;-81
2022/02/11 06:39:21;;;;;;;4.63;1.77;;;4.20;99.90;;;;;;5087460;28;20827;-81
2022/02/11 06:42:07;;;;;;;1.30;1.20;;;4.30;99.90;;;;;;5080119;28;20388;-81
2022/02/11 06:44:51;;;;;;;1.87;1.30;;;4.30;99.90;;;;;;5067470;28;20443;-81
2022/02/11 06:47:36;;;;;;;3.87;1.53;;;4.20;99.90;;;;;;5073012;28;20380;-81
2022/02/11 06:50:21;;;;;;;1.40;1.30;;;4.30;99.90;;;;;;5074611;28;20405;-80
2022/02/11 06:53:09;;;;;;;1.43;1.17;;;4.30;99.90;;;;;;5073771;28;20414;-81
2022/02/11 06:55:54;;;;;;;3.03;2.83;;;4.40;99.90;;;;;;5075238;28;20421;-80
2022/02/11 06:58:38;;;;;;;1.50;1.40;;;4.40;99.90;;;;;;5074060;28;20467;-82
2022/02/11 07:01:24;;;;;;;1.63;1.53;;;4.30;99.90;;;;;;5074830;28;20398;-81
2022/02/11 07:04:08;;;;;;;1.57;1.47;;;4.20;99.90;;;;;;5069441;28;20560;-80
2022/02/11 07:06:53;;;;;;;1.40;1.30;;;4.10;99.90;;;;;;5078570;28;20399;-80
2022/02/11 07:09:37;;;;;;;2.17;1.30;;;4.10;99.90;;;;;;5068865;28;20454;-81
2022/02/11 07:12:22;;;;;;;1.50;1.40;;;4.10;99.90;;;;;;5070293;28;20433;-82
2022/02/11 07:15:07;;;;;;;2.40;2.30;;;4.20;99.90;;;;;;5080305;28;20472;-81
2022/02/11 07:17:52;;;;;;;1.80;1.70;;;4.20;99.90;;;;;;5068421;28;20474;-81
2022/02/11 07:20:37;;;;;;;1.73;1.63;;;4.20;99.90;;;;;;5066582;28;20416;-80
2022/02/11 07:23:22;;;;;;;1.50;1.40;;;4.10;99.90;;;;;;5065100;28;20537;-81
2022/02/11 07:26:07;;;;;;;1.60;1.50;;;4.20;99.90;;;;;;5073252;28;20391;-81
2022/02/11 07:28:51;;;;;;;2.03;1.80;;;4.10;99.90;;;;;;5075776;28;20379;-81
2022/02/11 07:31:36;;;;;;;2.57;2.37;;;4.20;99.90;;;;;;5070852;28;20425;-81
2022/02/11 07:34:21;;;;;;;2.53;2.30;;;4.20;99.90;;;;;;5071615;28;20487;-81
2022/02/11 07:37:06;;;;;;;2.20;1.80;;;4.20;99.90;;;;;;5070708;28;20399;-81
2022/02/11 07:39:50;;;;;;;2.70;2.10;;;4.40;99.90;;;;;;5077193;28;20407;-81
2022/02/11 07:42:36;;;;;;;2.03;1.87;;;4.50;99.90;;;;;;5076358;28;20513;-79
2022/02/11 07:45:24;;;;;;;2.70;2.20;;;4.60;99.90;;;;;;5070039;28;20380;-81
2022/02/11 07:48:08;;;;;;;2.07;1.93;;;4.70;99.90;;;;;;5072544;28;20476;-81
2022/02/11 07:50:53;;;;;;;2.33;2.13;;;4.70;99.90;;;;;;5072748;28;20516;-79
2022/02/11 07:53:38;;;;;;;3.90;1.90;;;4.30;99.90;;;;;;5075616;28;20417;-81
2022/02/11 07:56:22;;;;;;;2.47;1.83;;;4.40;99.90;;;;;;5086305;28;20456;-81
2022/02/11 07:59:07;;;;;;;2.27;1.53;;;4.40;99.90;;;;;;5078723;28;20423;-81
2022/02/11 08:01:52;;;;;;;2.50;1.90;;;4.20;99.90;;;;;;5072998;28;20450;-78
2022/02/11 08:04:37;;;;;;;2.80;2.60;;;4.40;99.90;;;;;;5039902;28;20849;-78
2022/02/11 08:07:23;;;;;;;2.63;2.20;;;4.50;99.90;;;;;;5039476;28;20472;-80
2022/02/11 08:10:07;;;;;;;2.20;2.03;;;4.60;99.90;;;;;;5046706;28;20530;-80
2022/02/11 08:12:52;;;;;;;4.00;2.67;;;4.30;99.90;;;;;;5044011;28;20429;-78
2022/02/11 08:15:36;;;;;;;2.40;2.23;;;4.60;99.90;;;;;;5031767;28;20467;-78
2022/02/11 08:18:21;;;;;;;3.43;2.67;;;4.90;99.90;;;;;;5042320;28;20461;-79
2022/02/11 08:21:05;;;;;;;6.13;2.30;;;5.30;99.90;;;;;;5047834;28;20386;-80
2022/02/11 08:23:51;;;;;;;2.20;2.10;;;5.20;99.90;;;;;;5040240;28;20435;-80
2022/02/11 08:26:36;;;;;;;2.30;2.10;;;5.00;99.90;;;;;;5038437;28;20426;-80
2022/02/11 08:29:25;;;;;;;3.33;2.43;;;5.10;99.90;;;;;;5034817;28;20422;-80
2022/02/11 08:32:09;;;;;;;2.80;2.53;;;5.20;99.90;;;;;;5033679;28;20524;-78
2022/02/11 08:34:54;;;;;;;4.43;2.20;;;5.10;99.90;;;;;;5030280;28;20467;-80
2022/02/11 08:37:39;;;;;;;3.93;2.60;;;5.40;99.90;;;;;;5034331;28;20392;-81
2022/02/11 08:40:23;;;;;;;4.63;3.13;;;5.70;99.90;;;;;;5029467;28;20426;-81
2022/02/11 08:43:09;;;;;;;3.60;2.90;;;5.60;99.90;;;;;;5037195;28;20468;-81
2022/02/11 08:45:54;;;;;;;5.73;4.23;;;5.70;99.90;;;;;;5014942;28;20406;-80
2022/02/11 08:48:38;;;;;;;4.33;2.90;;;6.60;99.90;;;;;;5015350;28;20437;-80
2022/02/11 08:51:23;;;;;;;5.50;2.97;;;7.00;99.90;;;;;;5041856;28;20430;-79
2022/02/11 08:54:08;;;;;;;4.87;2.50;;;7.90;99.90;;;;;;5027296;28;20439;-79
2022/02/11 08:56:53;;;;;;;4.70;3.13;;;8.70;99.90;;;;;;5028363;28;20483;-80
2022/02/11 08:59:40;;;;;;;2.77;2.57;;;8.40;99.90;;;;;;5029972;28;20406;-81
2022/02/11 09:02:25;;;;;;;10.43;3.20;;;7.50;99.90;;;;;;5034747;28;20493;-80
2022/02/11 09:05:10;;;;;;;4.33;2.97;;;6.70;99.90;;;;;;5076686;28;20625;-80
2022/02/11 09:07:56;;;;;;;3.00;2.70;;;6.00;99.90;;;;;;5064474;28;20574;-80
2022/02/11 09:10:40;;;;;;;2.50;2.30;;;5.70;99.90;;;;;;5073461;28;20448;-80
2022/02/11 09:13:27;;;;;;;2.70;2.50;;;5.60;99.90;;;;;;5073841;28;20425;-81
2022/02/11 09:16:12;;;;;;;7.83;3.13;;;5.30;99.90;;;;;;5079163;28;20417;-80
2022/02/11 09:18:57;;;;;;;4.70;2.50;;;5.20;99.90;;;;;;5078574;28;20404;-81
2022/02/11 09:21:42;;;;;;;4.60;2.47;;;5.60;99.90;;;;;;5077725;28;20465;-80
2022/02/11 09:24:26;;;;;;;6.90;3.40;;;5.20;99.90;;;;;;5053057;28;20452;-80
2022/02/11 09:27:10;;;;;;;4.20;2.80;;;5.60;99.90;;;;;;5074972;28;20419;-80
2022/02/11 09:29:55;;;;;;;4.33;2.53;;;5.80;99.90;;;;;;5067272;28;20407;-80
2022/02/11 09:32:40;;;;;;;3.90;2.47;;;5.50;99.90;;;;;;5075082;28;20812;-81
2022/02/11 09:35:27;;;;;;;3.77;3.33;;;5.80;99.90;;;;;;5065515;28;20473;-81
2022/02/11 09:38:13;;;;;;;5.83;3.67;;;5.60;99.90;;;;;;5064015;28;20846;-80
2022/02/11 09:40:59;;;;;;;14.17;2.80;;;5.60;99.90;;;;;;5072597;28;20455;-80
2022/02/11 09:43:46;;;;;;;5.13;2.77;;;5.50;99.90;;;;;;5060660;28;20494;-81
2022/02/11 09:46:35;;;;;;;2.67;2.53;;;5.80;99.90;;;;;;5072415;28;20413;-81
2022/02/11 09:49:19;;;;;;;3.30;3.00;;;5.90;99.90;;;;;;5075842;28;20753;-81
2022/02/11 09:52:05;;;;;;;8.67;3.00;;;6.00;99.90;;;;;;5073928;28;20428;-79
2022/02/11 09:55:31;;;;;;;4.97;2.40;;;6.00;99.90;;;;;;5063406;28;20422;-80
2022/02/11 09:57:54;;;;;;;3.33;2.43;;;5.80;99.90;;;;;;5074614;28;20406;-80
2022/02/11 10:00:41;;;;;;;2.50;2.30;;;5.70;99.90;;;;;;5073972;28;20447;-79
2022/02/11 10:03:30;;;;;;;5.80;3.03;;;5.90;99.90;;;;;;5069784;28;20458;-80
2022/02/11 10:06:16;;;;;;;4.03;3.13;;;5.80;99.90;;;;;;5070866;28;20395;-83
2022/02/11 10:09:04;;;;;;;4.70;3.17;;;5.70;99.90;;;;;;5068511;28;20401;-80
2022/02/11 10:11:51;;;;;;;11.40;2.87;;;5.90;99.90;;;;;;5062949;28;20469;-81
2022/02/11 10:14:36;;;;;;;2.90;2.63;;;5.70;99.90;;;;;;5068690;28;20731;-80
2022/02/11 10:17:20;;;;;;;4.80;2.33;;;5.60;99.90;;;;;;5060032;28;20412;-79
2022/02/11 10:20:08;;;;;;;3.37;2.90;;;5.60;99.90;;;;;;5060971;28;20395;-81
2022/02/11 10:23:20;;;;;;;7.33;2.77;;;5.80;99.90;;;;;;5067646;28;20468;-80
2022/02/11 10:26:11;;;;;;;6.90;2.33;;;5.80;99.90;;;;;;5066227;28;20438;-81
2022/02/11 10:28:57;;;;;;;3.57;3.37;;;5.70;99.90;;;;;;5069123;28;20917;-80
2022/02/11 10:31:47;;;;;;;3.80;2.60;;;5.80;99.90;;;;;;5070205;28;20426;-80
2022/02/11 10:34:32;;;;;;;4.77;2.40;;;5.90;99.90;;;;;;5067319;28;20417;-80
2022/02/11 10:37:17;;;;;;;3.67;2.00;;;6.10;99.90;;;;;;5070323;28;20433;-81
2022/02/11 10:40:03;;;;;;;2.43;2.23;;;6.30;99.90;;;;;;5061625;28;20524;-80
2022/02/11 10:43:20;;;;;;;7.13;4.03;;;6.60;99.90;;;;;;5069954;28;20467;-80
2022/02/11 10:46:16;;;;;;;4.13;2.90;;;6.70;99.90;;;;;;5072590;28;20413;-80
2022/02/11 10:49:01;;;;;;;9.10;2.57;;;6.70;99.90;;;;;;5047864;28;20411;-80
2022/02/11 10:51:48;;;;;;;3.10;2.80;;;6.80;99.90;;;;;;5079867;28;20416;-81
2022/02/11 10:54:34;;;;;;;3.83;2.80;;;7.20;99.90;;;;;;5064374;28;20387;-80
2022/02/11 10:57:22;;;;;;;5.60;3.00;;;8.90;99.90;;;;;;5075163;28;20435;-80
2022/02/11 11:00:07;;;;;;;2.70;2.40;;;8.30;99.90;;;;;;5076654;28;20425;-79
2022/02/11 11:02:53;;;;;;;3.10;2.37;;;8.10;99.90;;;;;;5072024;28;20471;-80
2022/02/11 11:05:42;;;;;;;2.30;2.10;;;8.70;99.90;;;;;;5065231;28;20599;-81
2022/02/11 11:08:29;;;;;;;2.93;2.73;;;8.60;99.90;;;;;;5046948;28;20526;-81
2022/02/11 11:11:15;;;;;;;2.70;2.43;;;8.40;99.90;;;;;;5065451;28;21287;-80
2022/02/11 11:14:02;;;;;;;8.33;2.90;;;7.50;99.90;;;;;;5074117;28;20795;-81
2022/02/11 11:16:54;;;;;;;2.60;2.40;;;7.70;99.90;;;;;;5073006;28;20453;-81
2022/02/11 11:19:48;;;;;;;1.70;1.57;;;7.80;99.90;;;;;;5063305;28;20463;-80
2022/02/11 11:22:45;;;;;;;2.73;2.17;;;6.80;99.90;;;;;;5082667;28;20453;-78
2022/02/11 11:26:02;;;;;;;5.77;2.17;;;6.60;99.90;;;;;;5070905;28;20886;-80
2022/02/11 11:28:49;;;;;;;2.93;2.40;;;6.50;99.90;;;;;;5061342;28;20413;-81
2022/02/11 11:31:33;;;;;;;3.23;2.93;;;6.60;99.90;;;;;;5074592;28;20416;-81
2022/02/11 11:34:32;;;;;;;6.07;3.00;;;6.40;99.90;;;;;;5070139;28;20392;-80
2022/02/11 11:37:19;;;;;;;2.60;2.40;;;6.20;99.90;;;;;;5069663;28;20383;-79
2022/02/11 11:40:22;;;;;;;3.30;3.00;;;6.10;99.90;;;;;;5077122;28;20895;-80
2022/02/11 11:43:15;;;;;;;5.83;2.57;;;6.00;99.90;;;;;;5075640;28;20526;-81
2022/02/11 11:46:26;;;;;;;6.10;3.23;;;6.30;99.90;;;;;;5065864;28;20477;-82
2022/02/11 11:49:12;;;;;;;5.53;2.47;;;6.40;99.90;;;;;;5080511;28;20466;-82
2022/02/11 11:52:03;;;;;;;2.90;2.53;;;7.30;99.90;;;;;;5072889;28;20433;-82
2022/02/11 11:55:08;;;;;;;4.30;2.80;;;9.10;99.90;;;;;;5075087;28;20512;-82
2022/02/11 11:57:52;;;;;;;4.47;2.53;;;9.60;99.90;;;;;;5080799;28;20417;-81
2022/02/11 12:00:41;;;;;;;6.20;2.40;;;9.60;99.90;;;;;;5080486;28;20462;-81
2022/02/11 12:03:26;;;;;;;4.83;2.37;;;9.10;99.90;;;;;;5080983;28;20591;-83
2022/02/11 12:06:20;;;;;;;4.20;2.20;;;8.40;99.90;;;;;;5069238;28;20373;-80
2022/02/11 12:09:06;;;;;;;1.80;1.70;;;7.90;99.90;;;;;;5069734;28;20498;-81
2022/02/11 12:12:07;;;;;;;5.73;2.40;;;7.60;99.90;;;;;;5071726;28;20484;-80
2022/02/11 12:14:54;;;;;;;2.37;1.80;;;7.10;99.90;;;;;;5072467;28;20922;-80
2022/02/11 12:17:38;;;;;;;3.17;2.97;;;7.10;99.90;;;;;;5068803;28;20403;-82
2022/02/11 12:20:22;;;;;;;2.70;2.37;;;7.10;99.90;;;;;;5060826;28;20404;-82
2022/02/11 12:29:23;;;;;;;5.70;3.13;;;6.80;99.90;;;;;;5053688;28;20436;-81
2022/02/11 12:32:09;;;;;;;4.20;2.07;;;6.80;99.90;;;;;;5058232;28;20464;-82
2022/02/11 12:34:56;;;;;;;2.90;1.93;;;7.00;99.90;;;;;;5066197;28;21020;-81
2022/02/11 12:37:46;;;;;;;2.17;1.97;;;6.80;99.90;;;;;;5071084;28;20410;-81
2022/02/11 12:40:34;;;;;;;7.30;3.77;;;6.90;99.90;;;;;;5057674;28;20440;-83
2022/02/11 12:43:19;;;;;;;6.03;2.50;;;6.70;99.90;;;;;;5076143;28;20431;-83
2022/02/11 12:46:08;;;;;;;1.60;1.50;;;6.70;99.90;;;;;;5072410;28;20407;-81
2022/02/11 12:48:58;;;;;;;3.07;1.93;;;6.70;99.90;;;;;;5075713;28;20408;-83
2022/02/11 12:51:51;;;;;;;5.13;1.97;;;6.40;99.90;;;;;;5067935;28;20428;-82
2022/02/11 12:54:36;;;;;;;2.43;1.93;;;6.50;99.90;;;;;;5035392;28;20430;-82
2022/02/11 12:57:21;;;;;;;2.80;1.80;;;6.50;99.90;;;;;;5058985;28;20525;-83
2022/02/11 13:00:08;;;;;;;1.87;1.63;;;7.10;99.90;;;;;;5064286;28;20450;-82
2022/02/11 13:02:58;;;;;;;3.27;2.50;;;8.10;99.90;;;;;;5073850;28;20599;-82
2022/02/11 13:05:50;;;;;;;4.00;3.00;;;8.90;99.90;;;;;;5067511;28;20435;-82
2022/02/11 13:08:34;;;;;;;2.57;2.37;;;9.70;99.90;;;;;;5069403;28;20489;-82
2022/02/11 13:11:20;;;;;;;1.70;1.60;;;10.50;99.90;;;;;;5064405;28;20425;-82
2022/02/11 13:14:06;;;;;;;2.57;1.70;;;10.30;99.90;;;;;;5064367;28;21025;-82
2022/02/11 13:16:50;;;;;;;7.07;2.00;;;9.90;99.90;;;;;;5061559;28;20463;-82
2022/02/11 13:19:37;;;;;;;5.10;2.60;;;9.60;99.90;;;;;;5062475;28;20418;-81
2022/02/11 13:22:22;;;;;;;3.00;2.33;;;9.30;99.90;;;;;;5072610;28;20453;-81
2022/02/11 13:25:08;;;;;;;4.10;2.00;;;8.80;99.90;;;;;;5065110;28;20435;-83
2022/02/11 13:27:54;;;;;;;3.37;1.70;;;8.70;99.90;;;;;;5072222;28;20482;-83
2022/02/11 13:30:45;;;;;;;3.30;2.30;;;8.40;99.90;;;;;;5067975;28;20441;-82
2022/02/11 13:33:33;;;;;;;3.33;2.03;;;8.40;99.90;;;;;;5068208;28;20410;-82
2022/02/11 13:36:26;;;;;;;2.73;2.43;;;8.40;99.90;;;;;;5065588;28;20404;-82
2022/02/11 13:39:10;;;;;;;4.20;1.93;;;8.50;99.90;;;;;;5062504;28;20425;-82
2022/02/11 13:41:55;;;;;;;2.23;1.70;;;8.50;99.90;;;;;;5076995;28;20470;-81
2022/02/11 13:44:42;;;;;;;2.53;2.20;;;8.60;99.90;;;;;;5062254;28;20435;-82
2022/02/11 13:47:27;;;;;;;2.00;1.90;;;8.90;99.90;;;;;;5059674;28;20765;-83
2022/02/11 13:50:14;;;;;;;2.30;1.97;;;9.10;99.90;;;;;;5071163;28;20415;-82
2022/02/11 13:53:01;;;;;;;3.43;1.87;;;9.10;99.90;;;;;;5064852;28;20405;-81
2022/02/11 13:55:53;;;;;;;3.03;2.13;;;8.60;99.90;;;;;;5077163;28;20421;-82
2022/02/11 13:58:40;;;;;;;2.80;1.40;;;8.40;99.90;;;;;;5078489;28;20408;-82
2022/02/11 14:01:26;;;;;;;1.37;1.27;;;8.20;99.90;;;;;;5069755;28;20432;-82
2022/02/11 14:04:14;;;;;;;1.50;1.40;;;7.70;99.90;;;;;;5066887;28;20506;-81
2022/02/11 14:06:59;;;;;;;3.00;2.00;;;7.40;99.90;;;;;;5072942;28;20529;-82
2022/02/11 14:09:44;;;;;;;1.83;1.73;;;7.20;99.90;;;;;;5071495;28;20739;-82
2022/02/11 14:12:31;;;;;;;2.40;1.70;;;7.10;99.90;;;;;;5069529;28;20559;-82
2022/02/11 14:15:16;;;;;;;4.13;2.20;;;7.00;99.90;;;;;;5064168;28;20713;-82
2022/02/11 14:18:03;;;;;;;1.63;1.53;;;6.90;99.90;;;;;;5064123;28;20406;-81
2022/02/11 14:20:47;;;;;;;3.78;2.22;;;7.00;99.90;;;;;;5064846;28;20423;-82
2022/02/11 14:23:32;;;;;;;4.23;1.93;;;8.00;99.90;;;;;;5067461;28;20206;-81
2022/02/11 14:26:17;;;;;;;3.13;2.20;;;8.90;99.90;;;;;;5068543;28;20396;-79
2022/02/11 14:29:04;;;;;;;2.67;1.80;;;10.50;99.90;;;;;;5040142;28;20377;-81
2022/02/11 14:31:49;;;;;;;4.27;2.10;;;11.60;99.90;;;;;;5055440;28;20429;-82
2022/02/11 14:34:34;;;;;;;1.90;1.63;;;12.60;99.90;;;;;;5067834;28;20424;-82
2022/02/11 14:37:21;;;;;;;2.70;1.60;;;13.00;99.90;;;;;;5065672;28;20548;-82
2022/02/11 14:40:06;;;;;;;2.73;2.10;;;12.40;99.90;;;;;;5069119;28;20424;-82
2022/02/11 14:42:51;;;;;;;3.10;1.83;;;11.90;99.90;;;;;;5069668;28;20468;-82
2022/02/11 14:45:36;;;;;;;6.33;2.13;;;11.10;99.90;;;;;;5052731;28;20426;-80
2022/02/11 14:48:21;;;;;;;3.20;2.90;;;10.50;99.90;;;;;;5074441;28;20413;-80
2022/02/11 14:51:05;;;;;;;5.90;2.53;;;10.00;99.90;;;;;;5067215;28;20528;-81
2022/02/11 14:53:50;;;;;;;5.50;2.00;;;9.40;99.90;;;;;;5072642;28;20925;-80
2022/02/11 14:56:37;;;;;;;4.83;3.23;;;9.10;99.90;;;;;;5069351;28;20408;-80
2022/02/11 14:59:22;;;;;;;8.67;2.80;;;8.80;99.90;;;;;;5075698;28;20404;-80
2022/02/11 15:02:07;;;;;;;2.47;2.27;;;8.60;99.90;;;;;;5057289;28;20423;-80
2022/02/11 15:04:54;;;;;;;2.30;2.07;;;8.20;99.90;;;;;;5041346;28;20428;-81
2022/02/11 15:07:42;;;;;;;6.10;2.77;;;8.20;99.90;;;;;;5073451;28;20426;-80
2022/02/11 15:10:26;;;;;;;2.13;1.93;;;8.20;99.90;;;;;;5060141;28;20822;-81
2022/02/11 15:13:12;;;;;;;7.33;2.80;;;8.20;99.90;;;;;;5019915;28;20399;-80
2022/02/11 15:15:56;;;;;;;1.73;1.63;;;8.40;99.90;;;;;;5058854;28;20955;-81
2022/02/11 15:18:41;;;;;;;5.40;2.07;;;8.40;99.90;;;;;;5055390;28;20432;-80
2022/02/11 15:21:25;;;;;;;2.70;1.73;;;8.40;99.90;;;;;;5035711;28;20398;-80
2022/02/11 15:24:10;;;;;;;1.70;1.60;;;8.00;99.90;;;;;;5064406;28;21029;-80
2022/02/11 15:26:57;;;;;;;2.40;1.90;;;8.10;99.90;;;;;;5067351;28;20891;-80
2022/02/11 15:29:42;;;;;;;5.50;1.57;;;8.30;99.90;;;;;;5040979;28;20417;-80
2022/02/11 15:32:26;;;;;;;2.77;1.90;;;8.30;99.90;;;;;;5063235;28;20900;-80
2022/02/11 15:35:11;;;;;;;3.83;1.90;;;8.20;99.90;;;;;;5067817;28;20459;-80
2022/02/11 15:37:56;;;;;;;1.70;1.60;;;8.10;99.90;;;;;;5041444;28;20425;-81
2022/02/11 15:40:40;;;;;;;2.20;1.97;;;8.00;99.90;;;;;;5062363;28;20436;-81
2022/02/11 15:43:25;;;;;;;9.93;3.07;;;7.80;99.90;;;;;;5073804;28;20543;-80
2022/02/11 15:46:10;;;;;;;3.73;3.30;;;7.70;99.90;;;;;;5082345;28;20404;-81
2022/02/11 15:48:55;;;;;;;6.33;2.33;;;7.60;99.90;;;;;;5067416;28;20395;-80
2022/02/11 15:51:39;;;;;;;1.70;1.60;;;7.50;99.90;;;;;;5059832;28;20521;-81
2022/02/11 15:54:24;;;;;;;2.70;1.87;;;7.40;99.90;;;;;;5066089;28;20461;-80
2022/02/11 15:57:08;;;;;;;2.47;2.27;;;7.40;99.90;;;;;;5075462;28;20388;-81
2022/02/11 15:59:54;;;;;;;3.37;2.73;;;7.30;99.90;;;;;;5037791;28;20491;-80
2022/02/11 16:02:39;;;;;;;3.93;2.20;;;7.20;99.90;;;;;;5024628;28;20828;-81
2022/02/11 16:05:24;;;;;;;2.03;1.90;;;7.10;99.90;;;;;;5061894;28;20445;-82
2022/02/11 16:08:08;;;;;;;5.33;2.13;;;7.00;99.90;;;;;;5032135;28;20923;-81
2022/02/11 16:10:52;;;;;;;2.40;1.93;;;6.90;99.90;;;;;;5035825;28;20417;-81
2022/02/11 16:13:38;;;;;;;6.93;2.03;;;6.90;99.90;;;;;;5037703;28;20449;-81
2022/02/11 16:16:23;;;;;;;2.80;1.47;;;6.70;99.90;;;;;;5052008;28;20446;-82
2022/02/11 16:19:07;;;;;;;1.97;1.77;;;6.70;99.90;;;;;;5051017;28;20372;-81
2022/02/11 16:21:52;;;;;;;1.73;1.63;;;6.70;99.90;;;;;;5060903;28;20452;-82
2022/02/11 16:24:37;;;;;;;3.13;2.23;;;6.60;99.90;;;;;;5081312;28;20444;-81
2022/02/11 16:27:21;;;;;;;3.60;2.30;;;6.60;99.90;;;;;;5070006;28;20387;-81
2022/02/11 16:30:07;;;;;;;5.70;2.10;;;6.60;99.90;;;;;;5085807;28;20382;-80
2022/02/11 16:32:52;;;;;;;3.60;2.27;;;6.70;99.90;;;;;;5084471;28;20430;-81
2022/02/11 16:35:40;;;;;;;3.20;2.73;;;6.70;99.90;;;;;;5084140;28;20379;-82
2022/02/11 16:38:25;;;;;;;5.83;3.07;;;6.60;99.90;;;;;;5081349;28;20451;-82
2022/02/11 16:41:10;;;;;;;8.50;2.73;;;6.60;99.90;;;;;;5082409;28;20372;-82
2022/02/11 16:43:55;;;;;;;2.73;1.87;;;6.50;99.90;;;;;;5083863;28;20430;-82
2022/02/11 16:46:40;;;;;;;20.43;4.30;;;6.50;99.90;;;;;;5084122;28;20400;-82
2022/02/11 16:49:48;;;;;;;6.97;2.40;;;6.60;99.90;;;;;;5095851;28;20391;-82
2022/02/11 16:52:33;;;;;;;6.73;2.73;;;6.60;99.90;;;;;;5096397;28;20586;-82
2022/02/11 16:55:18;;;;;;;7.43;2.63;;;6.50;99.90;;;;;;5096809;28;20521;-80
2022/02/11 16:58:03;;;;;;;4.07;2.13;;;6.50;99.90;;;;;;5095376;28;20375;-83
2022/02/11 17:00:47;;;;;;;3.57;2.93;;;6.60;99.90;;;;;;5093326;28;20407;-82
2022/02/11 17:03:32;;;;;;;6.73;3.37;;;6.60;99.90;;;;;;5085513;28;21066;-81
2022/02/11 17:06:17;;;;;;;2.87;2.00;;;6.60;99.90;;;;;;5081280;28;20539;-82
2022/02/11 17:09:02;;;;;;;8.33;2.67;;;6.60;99.90;;;;;;5065065;28;20382;-81
2022/02/11 17:11:47;;;;;;;5.37;2.10;;;6.60;99.90;;;;;;5059783;28;20442;-82
2022/02/11 17:14:31;;;;;;;7.57;2.20;;;6.70;99.90;;;;;;5031132;28;20472;-82
2022/02/11 17:17:16;;;;;;;3.33;1.50;;;6.70;99.90;;;;;;5058978;28;20762;-82
2022/02/11 17:20:00;;;;;;;3.20;2.40;;;6.70;99.90;;;;;;5058655;28;20365;-81
2022/02/11 17:22:45;;;;;;;6.63;2.93;;;6.70;99.90;;;;;;5059086;28;20578;-81
2022/02/11 17:25:29;;;;;;;9.27;2.13;;;6.70;99.90;;;;;;5060003;28;20420;-80
2022/02/11 17:28:14;;;;;;;12.33;4.10;;;6.70;99.90;;;;;;5061206;28;20430;-79
2022/02/11 17:31:00;;;;;;;3.07;2.13;;;6.60;99.90;;;;;;5061945;28;20433;-80
2022/02/11 17:33:44;;;;;;;8.97;2.43;;;6.60;99.90;;;;;;5060345;28;20387;-81
2022/02/11 17:36:29;;;;;;;4.30;2.53;;;6.60;99.90;;;;;;5060939;28;20407;-81
2022/02/11 17:39:14;;;;;;;3.50;1.93;;;6.50;99.90;;;;;;5061038;28;20397;-81
2022/02/11 17:42:00;;;;;;;2.50;2.30;;;6.50;99.90;;;;;;5068122;28;20430;-79
2022/02/11 17:44:46;;;;;;;3.77;2.07;;;6.50;99.90;;;;;;5083581;28;20460;-81
2022/02/11 17:47:30;;;;;;;4.67;2.80;;;6.50;99.90;;;;;;5083099;28;20382;-81
2022/02/11 17:50:15;;;;;;;4.43;2.60;;;6.50;99.90;;;;;;5084446;28;20363;-81
2022/02/11 17:53:00;;;;;;;9.40;2.73;;;6.50;99.90;;;;;;5069299;28;20367;-81
2022/02/11 17:55:45;;;;;;;9.50;2.37;;;6.60;99.90;;;;;;5082249;28;20460;-81